Time;durP1;ratioP1;P1;durP2;ratioP2;P2;SDS_P1;SDS_P2;PMS_P1;PMS_P2;Temp;Humidity;BMP_temperature;BMP_pressure;BME280_temperature;BME280_humidity;BME280_pressure;Samples;Min_cycle;Max_cycle;Signal;HPM_P1;HPM_P2
2023/07/30 00:00:54;;;;;;;8.60;1.85;;;19.90;99.90;;;;;;5096928;28;20196;-61
2023/07/30 00:03:22;;;;;;;1.42;1.38;;;19.90;99.90;;;;;;5108712;28;20219;-61
2023/07/30 00:05:54;;;;;;;3.60;1.80;;;19.90;99.90;;;;;;5098471;28;20604;-62
2023/07/30 00:08:22;;;;;;;4.53;2.03;;;19.90;99.90;;;;;;5101621;28;20702;-62
2023/07/30 00:10:50;;;;;;;3.08;1.80;;;19.90;99.90;;;;;;5107003;28;20199;-61
2023/07/30 00:13:18;;;;;;;2.65;1.92;;;19.80;99.90;;;;;;5095818;28;20285;-62
2023/07/30 00:15:48;;;;;;;3.63;1.90;;;19.90;99.90;;;;;;5105820;28;20223;-62
2023/07/30 00:18:16;;;;;;;7.43;1.90;;;19.80;99.90;;;;;;5095558;28;20253;-62
2023/07/30 00:20:44;;;;;;;4.20;2.30;;;19.80;99.90;;;;;;5105903;28;20655;-62
2023/07/30 00:23:12;;;;;;;3.17;1.50;;;19.80;99.90;;;;;;5095300;28;20241;-62
2023/07/30 00:25:40;;;;;;;3.88;1.70;;;19.80;99.90;;;;;;5096687;27;20281;-61
2023/07/30 00:28:08;;;;;;;5.13;1.95;;;19.80;99.90;;;;;;5095263;28;20256;-61
2023/07/30 00:30:36;;;;;;;7.80;2.03;;;19.80;99.90;;;;;;5099264;28;20282;-62
2023/07/30 00:33:05;;;;;;;4.15;2.00;;;19.80;99.90;;;;;;5100700;28;20310;-61
2023/07/30 00:35:33;;;;;;;5.55;1.63;;;19.80;99.90;;;;;;5100971;28;20244;-61
2023/07/30 00:38:01;;;;;;;5.82;1.73;;;19.80;99.90;;;;;;5103979;28;20295;-62
2023/07/30 00:40:29;;;;;;;12.70;1.90;;;19.70;99.90;;;;;;5103564;28;20214;-62
2023/07/30 00:42:57;;;;;;;5.05;2.00;;;19.70;99.90;;;;;;5095876;28;20224;-62
2023/07/30 00:45:25;;;;;;;3.55;1.55;;;19.70;99.90;;;;;;5108099;28;20243;-62
2023/07/30 00:47:53;;;;;;;4.75;1.33;;;19.70;99.90;;;;;;5098734;28;20215;-62
2023/07/30 00:50:22;;;;;;;4.78;1.23;;;19.70;99.90;;;;;;5100886;28;20203;-62
2023/07/30 00:52:50;;;;;;;10.00;2.00;;;19.70;99.90;;;;;;5106437;28;20262;-61
2023/07/30 00:55:18;;;;;;;4.57;1.63;;;19.70;99.90;;;;;;5094654;28;20649;-61
2023/07/30 00:57:46;;;;;;;9.05;1.40;;;19.70;99.90;;;;;;5105741;28;20228;-62
2023/07/30 01:00:14;;;;;;;1.60;1.48;;;19.70;99.90;;;;;;5101266;28;20199;-61
2023/07/30 01:02:42;;;;;;;7.43;1.20;;;19.70;99.90;;;;;;5097696;28;20247;-62
2023/07/30 01:05:10;;;;;;;6.35;1.45;;;19.80;99.90;;;;;;5107843;28;20674;-62
2023/07/30 01:07:39;;;;;;;5.57;1.38;;;19.80;99.90;;;;;;5100217;28;20218;-62
2023/07/30 01:10:08;;;;;;;1.80;1.23;;;19.80;99.90;;;;;;5106606;28;20303;-62
2023/07/30 01:12:36;;;;;;;1.55;1.00;;;19.80;99.90;;;;;;5108568;28;20261;-62
2023/07/30 01:15:05;;;;;;;2.63;1.10;;;19.80;99.90;;;;;;5098423;28;20291;-62
2023/07/30 01:17:33;;;;;;;1.63;1.13;;;19.80;99.90;;;;;;5111491;28;20283;-61
2023/07/30 01:20:00;;;;;;;5.50;1.83;;;19.80;99.90;;;;;;5094458;28;20200;-61
2023/07/30 01:22:30;;;;;;;1.98;1.15;;;19.80;99.90;;;;;;5107112;28;20224;-62
2023/07/30 01:24:58;;;;;;;2.47;1.30;;;19.70;99.90;;;;;;5099222;28;20238;-62
2023/07/30 01:27:27;;;;;;;2.38;0.77;;;19.70;99.90;;;;;;5112033;28;20254;-61
2023/07/30 01:30:04;;;;;;;5.00;1.00;;;19.70;99.90;;;;;;5102372;28;20241;-61
2023/07/30 01:32:32;;;;;;;3.35;0.98;;;19.70;99.90;;;;;;5102928;28;20298;-62
2023/07/30 01:35:00;;;;;;;1.10;1.00;;;19.70;99.90;;;;;;5110414;28;20207;-62
2023/07/30 01:37:29;;;;;;;1.40;1.00;;;19.70;99.90;;;;;;5098703;28;20282;-62
2023/07/30 01:39:57;;;;;;;1.10;1.00;;;19.70;99.90;;;;;;5107622;28;20255;-62
2023/07/30 01:42:29;;;;;;;0.98;0.82;;;19.70;99.90;;;;;;5106215;28;20250;-62
2023/07/30 01:44:57;;;;;;;0.80;0.75;;;19.70;99.90;;;;;;5098613;28;20208;-62
2023/07/30 01:47:25;;;;;;;1.25;0.65;;;19.70;99.90;;;;;;5097719;28;20223;-62
2023/07/30 01:49:53;;;;;;;4.40;1.02;;;19.70;99.90;;;;;;5108259;28;20223;-62
2023/07/30 01:52:20;;;;;;;0.68;0.60;;;19.80;99.90;;;;;;5105540;28;20285;-62
2023/07/30 01:54:50;;;;;;;1.92;1.17;;;19.80;99.90;;;;;;5099905;28;20740;-62
2023/07/30 01:57:18;;;;;;;5.97;1.10;;;19.70;99.90;;;;;;5111600;28;20196;-61
2023/07/30 01:59:45;;;;;;;9.48;1.27;;;19.70;99.90;;;;;;5100481;28;20662;-62
2023/07/30 02:02:13;;;;;;;4.90;0.98;;;19.70;99.90;;;;;;5104773;28;20569;-62
2023/07/30 02:04:41;;;;;;;4.45;1.17;;;19.70;99.90;;;;;;5108159;28;20203;-62
2023/07/30 02:07:09;;;;;;;3.50;0.90;;;19.70;99.90;;;;;;5097714;28;20654;-62
2023/07/30 02:09:37;;;;;;;3.70;0.98;;;19.70;99.90;;;;;;5110068;28;20244;-62
2023/07/30 02:12:07;;;;;;;1.38;0.90;;;19.70;99.90;;;;;;5102861;28;20223;-62
2023/07/30 02:14:35;;;;;;;2.33;1.02;;;19.60;99.90;;;;;;5101328;28;20311;-62
2023/07/30 02:17:03;;;;;;;3.42;1.05;;;19.60;99.90;;;;;;5110476;28;20203;-62
2023/07/30 02:19:31;;;;;;;2.13;1.00;;;19.60;99.90;;;;;;5093768;28;20228;-62
2023/07/30 02:21:59;;;;;;;0.98;0.93;;;19.60;99.90;;;;;;5102292;28;20220;-62
2023/07/30 02:24:27;;;;;;;2.60;1.08;;;19.60;99.90;;;;;;5102981;28;20232;-62
2023/07/30 02:26:55;;;;;;;7.20;1.10;;;19.60;99.90;;;;;;5109335;28;20210;-62
2023/07/30 02:29:25;;;;;;;6.22;1.17;;;19.60;99.90;;;;;;5097344;28;20308;-62
2023/07/30 02:31:53;;;;;;;3.47;0.75;;;19.60;99.90;;;;;;5107342;28;20267;-62
2023/07/30 02:34:21;;;;;;;4.63;1.00;;;19.50;99.90;;;;;;5104707;28;20199;-62
2023/07/30 02:36:49;;;;;;;3.90;1.00;;;19.50;99.90;;;;;;5098240;28;20220;-62
2023/07/30 02:39:18;;;;;;;2.15;1.00;;;19.50;99.90;;;;;;5110627;28;20202;-62
2023/07/30 02:41:45;;;;;;;1.25;1.08;;;19.50;99.90;;;;;;5099325;28;20223;-61
2023/07/30 02:44:13;;;;;;;1.80;0.90;;;19.50;99.90;;;;;;5104430;28;20200;-62
2023/07/30 02:46:43;;;;;;;4.57;1.00;;;19.50;99.90;;;;;;5107137;28;20827;-62
2023/07/30 02:49:11;;;;;;;3.95;1.02;;;19.50;99.90;;;;;;5097132;28;20224;-61
2023/07/30 02:51:39;;;;;;;3.20;0.90;;;19.50;99.90;;;;;;5109160;27;20314;-61
2023/07/30 02:54:08;;;;;;;2.83;0.90;;;19.40;99.90;;;;;;5102295;28;20573;-63
2023/07/30 02:56:36;;;;;;;5.88;0.80;;;19.40;99.90;;;;;;5100812;28;20228;-61
2023/07/30 02:59:04;;;;;;;4.05;0.88;;;19.40;99.90;;;;;;5110414;28;20215;-61
2023/07/30 03:01:32;;;;;;;1.30;0.85;;;19.50;99.90;;;;;;5097392;28;20251;-61
2023/07/30 03:04:01;;;;;;;1.20;0.95;;;19.40;99.90;;;;;;5097006;28;20204;-62
2023/07/30 03:06:29;;;;;;;2.25;0.90;;;19.40;99.90;;;;;;5104949;28;20241;-61
2023/07/30 03:08:57;;;;;;;1.17;0.70;;;19.40;99.90;;;;;;5097377;28;20687;-62
2023/07/30 03:11:25;;;;;;;8.52;1.00;;;19.40;99.90;;;;;;5109978;28;20299;-62
2023/07/30 03:13:52;;;;;;;6.20;0.85;;;19.30;99.90;;;;;;5100001;28;20238;-62
2023/07/30 03:16:20;;;;;;;2.40;0.73;;;19.30;99.90;;;;;;5102255;28;20237;-62
2023/07/30 03:18:48;;;;;;;1.67;1.10;;;19.30;99.90;;;;;;5095322;28;20200;-61
2023/07/30 03:21:18;;;;;;;3.67;1.17;;;19.30;99.90;;;;;;5093668;28;20283;-62
2023/07/30 03:23:48;;;;;;;5.45;1.13;;;19.30;99.90;;;;;;5093094;28;20292;-62
2023/07/30 03:26:16;;;;;;;10.18;1.50;;;19.30;99.90;;;;;;5102875;28;20762;-61
2023/07/30 03:28:43;;;;;;;4.63;0.90;;;19.20;99.90;;;;;;5099088;28;20232;-62
2023/07/30 03:31:11;;;;;;;2.35;1.00;;;19.20;99.90;;;;;;5108758;28;20212;-61
2023/07/30 03:33:43;;;;;;;4.50;0.77;;;19.30;99.90;;;;;;5097771;28;20662;-61
2023/07/30 03:36:11;;;;;;;2.33;0.82;;;19.20;99.90;;;;;;5103400;28;20265;-62
2023/07/30 03:38:40;;;;;;;3.15;1.00;;;19.20;99.90;;;;;;5106402;28;20196;-61
2023/07/30 03:41:08;;;;;;;5.13;1.10;;;19.10;99.90;;;;;;5095914;28;20243;-61
2023/07/30 03:43:36;;;;;;;2.42;0.90;;;19.10;99.90;;;;;;5108389;28;20224;-61
2023/07/30 03:46:04;;;;;;;3.60;1.00;;;19.10;99.90;;;;;;5100607;28;20670;-61
2023/07/30 03:48:32;;;;;;;3.72;0.93;;;19.10;99.90;;;;;;5100291;28;20212;-61
2023/07/30 03:51:00;;;;;;;3.40;0.60;;;19.10;99.90;;;;;;5108746;28;20320;-62
2023/07/30 03:53:27;;;;;;;6.32;1.20;;;19.00;99.90;;;;;;5095933;28;20788;-62
2023/07/30 03:55:57;;;;;;;4.82;0.90;;;19.10;99.90;;;;;;5104942;28;20195;-61
2023/07/30 03:58:25;;;;;;;1.25;0.75;;;19.00;99.90;;;;;;5103821;28;20239;-61
2023/07/30 04:00:52;;;;;;;3.83;1.00;;;19.00;99.90;;;;;;5096951;28;20570;-61
2023/07/30 04:03:20;;;;;;;4.45;1.00;;;19.00;99.90;;;;;;5109187;28;20280;-61
2023/07/30 04:05:49;;;;;;;7.22;0.85;;;19.00;99.90;;;;;;5098104;28;20630;-62
2023/07/30 04:08:17;;;;;;;3.90;0.70;;;19.00;99.90;;;;;;5102381;28;20279;-61
2023/07/30 04:10:45;;;;;;;8.68;1.00;;;19.00;99.90;;;;;;5106327;28;20226;-62
2023/07/30 04:13:14;;;;;;;2.58;0.85;;;19.00;99.90;;;;;;5095347;28;20307;-62
2023/07/30 04:15:42;;;;;;;6.47;0.80;;;19.00;99.90;;;;;;5106701;28;20204;-62
2023/07/30 04:18:10;;;;;;;4.22;1.30;;;19.00;99.90;;;;;;5095623;28;20198;-62
2023/07/30 04:20:38;;;;;;;4.30;1.05;;;19.00;99.90;;;;;;5105361;28;20203;-62
2023/07/30 04:23:06;;;;;;;5.55;0.80;;;19.00;99.90;;;;;;5095320;28;20852;-62
2023/07/30 04:25:33;;;;;;;4.47;0.95;;;19.00;99.90;;;;;;5107590;28;20607;-62
2023/07/30 04:28:01;;;;;;;1.95;0.90;;;19.00;99.90;;;;;;5099854;28;20195;-61
2023/07/30 04:30:30;;;;;;;5.68;0.90;;;19.00;99.90;;;;;;5099852;28;20219;-61
2023/07/30 04:32:58;;;;;;;2.75;0.80;;;19.00;99.90;;;;;;5108197;28;20219;-62
2023/07/30 04:35:27;;;;;;;2.08;0.93;;;19.00;99.90;;;;;;5095039;28;20248;-62
2023/07/30 04:37:54;;;;;;;5.38;0.90;;;19.00;99.90;;;;;;5105009;28;20272;-62
2023/07/30 04:40:22;;;;;;;2.53;0.80;;;19.00;99.90;;;;;;5102081;28;20252;-62
2023/07/30 04:42:50;;;;;;;2.10;0.90;;;19.10;99.90;;;;;;5096936;28;20739;-62
2023/07/30 04:45:18;;;;;;;12.93;1.05;;;19.10;99.90;;;;;;5108246;28;20260;-62
2023/07/30 04:47:47;;;;;;;6.88;1.08;;;19.10;99.90;;;;;;5091840;28;20692;-61
2023/07/30 04:50:16;;;;;;;1.80;0.80;;;19.10;99.90;;;;;;5091189;28;20727;-62
2023/07/30 04:52:44;;;;;;;3.70;1.00;;;19.10;99.90;;;;;;5091539;28;20228;-62
2023/07/30 04:55:11;;;;;;;4.70;1.35;;;19.10;99.90;;;;;;5107869;28;20235;-61
2023/07/30 04:57:39;;;;;;;1.52;0.93;;;19.10;99.90;;;;;;5096886;28;20274;-62
2023/07/30 05:00:08;;;;;;;2.90;1.00;;;19.10;99.90;;;;;;5102958;28;20196;-61
2023/07/30 05:02:36;;;;;;;8.50;1.05;;;19.10;99.90;;;;;;5104503;28;20692;-62
2023/07/30 05:05:06;;;;;;;2.17;1.00;;;19.10;99.90;;;;;;5094615;28;20253;-62
2023/07/30 05:07:34;;;;;;;2.20;1.00;;;19.10;99.90;;;;;;5107079;28;20224;-61
2023/07/30 05:10:03;;;;;;;1.35;0.93;;;19.10;99.90;;;;;;5099623;28;20250;-61
2023/07/30 05:12:31;;;;;;;3.90;1.23;;;19.10;99.90;;;;;;5099227;28;20224;-61
2023/07/30 05:14:59;;;;;;;2.30;1.02;;;19.10;99.90;;;;;;5107620;28;20265;-62
2023/07/30 05:17:27;;;;;;;2.47;1.30;;;19.10;99.90;;;;;;5094685;28;20278;-62
2023/07/30 05:19:55;;;;;;;3.60;1.17;;;19.20;99.90;;;;;;5085586;28;20195;-61
2023/07/30 05:22:25;;;;;;;2.67;1.50;;;19.20;99.90;;;;;;5100436;28;20298;-62
2023/07/30 05:24:53;;;;;;;1.35;1.10;;;19.20;99.90;;;;;;5106256;28;20638;-61
2023/07/30 05:27:20;;;;;;;1.05;1.05;;;19.20;99.90;;;;;;5094755;28;20204;-61
2023/07/30 05:29:49;;;;;;;6.38;1.58;;;19.30;99.90;;;;;;5105312;28;20363;-62
2023/07/30 05:32:17;;;;;;;1.10;1.00;;;19.30;99.90;;;;;;5101421;28;20219;-61
2023/07/30 05:34:45;;;;;;;3.22;1.10;;;19.30;99.90;;;;;;5096819;28;20204;-61
2023/07/30 05:37:13;;;;;;;1.40;1.05;;;19.40;99.90;;;;;;5108119;28;20284;-62
2023/07/30 05:39:42;;;;;;;2.05;1.10;;;19.40;99.90;;;;;;5096716;28;20256;-61
2023/07/30 05:42:10;;;;;;;2.03;1.27;;;19.40;99.90;;;;;;5101947;28;20305;-62
2023/07/30 05:44:39;;;;;;;0.90;0.90;;;19.50;99.90;;;;;;5104379;28;20234;-61
2023/07/30 05:47:06;;;;;;;1.27;1.00;;;19.50;99.90;;;;;;5094159;28;20231;-61
2023/07/30 05:49:34;;;;;;;2.40;1.30;;;19.60;99.90;;;;;;5107277;28;20245;-61
2023/07/30 05:52:02;;;;;;;1.25;1.00;;;19.60;99.90;;;;;;5099110;28;20330;-61
2023/07/30 05:54:30;;;;;;;1.25;1.20;;;19.60;99.90;;;;;;5102449;28;20232;-61
2023/07/30 05:56:59;;;;;;;2.22;1.10;;;19.70;99.90;;;;;;5110641;28;20203;-60
2023/07/30 05:59:27;;;;;;;2.03;0.95;;;19.70;99.90;;;;;;5097977;28;20659;-62
2023/07/30 06:01:56;;;;;;;3.63;1.13;;;19.80;99.90;;;;;;5107611;28;20251;-61
2023/07/30 06:04:24;;;;;;;3.40;1.00;;;19.90;99.90;;;;;;5106057;28;20248;-62
2023/07/30 06:06:52;;;;;;;1.13;1.00;;;20.00;99.90;;;;;;5099280;28;20239;-62
2023/07/30 06:09:20;;;;;;;1.27;1.15;;;20.10;99.90;;;;;;5111127;28;20231;-61
2023/07/30 06:11:48;;;;;;;0.90;0.90;;;20.20;99.90;;;;;;5100326;28;20226;-61
2023/07/30 06:14:17;;;;;;;2.20;0.93;;;20.30;99.90;;;;;;5104082;28;20208;-61
2023/07/30 06:16:45;;;;;;;2.78;1.00;;;20.40;99.90;;;;;;5100625;28;20253;-61
2023/07/30 06:19:13;;;;;;;1.65;1.20;;;20.50;99.90;;;;;;5094930;28;20200;-61
2023/07/30 06:21:41;;;;;;;3.65;0.90;;;20.50;99.90;;;;;;5097484;28;20223;-62
2023/07/30 06:24:09;;;;;;;2.15;0.90;;;20.60;99.90;;;;;;5097918;28;20227;-62
2023/07/30 06:26:37;;;;;;;5.57;1.00;;;20.60;99.90;;;;;;5099373;28;20200;-62
2023/07/30 06:29:05;;;;;;;1.00;1.00;;;20.60;99.90;;;;;;5102238;28;20204;-61
2023/07/30 06:31:34;;;;;;;1.05;1.05;;;20.60;99.90;;;;;;5096688;28;20223;-61
2023/07/30 06:34:02;;;;;;;3.10;1.08;;;20.60;99.90;;;;;;5091377;28;20207;-61
2023/07/30 06:36:30;;;;;;;1.40;1.17;;;20.60;99.90;;;;;;5092517;28;20284;-62
2023/07/30 06:38:58;;;;;;;1.33;0.90;;;20.70;99.90;;;;;;5095006;28;20204;-62
2023/07/30 06:41:26;;;;;;;1.23;1.10;;;20.80;99.90;;;;;;5093281;28;20254;-61
2023/07/30 06:43:53;;;;;;;1.02;0.70;;;20.80;99.90;;;;;;5092236;28;20295;-62
2023/07/30 06:46:21;;;;;;;2.47;0.90;;;20.80;99.90;;;;;;5092490;28;20227;-61
2023/07/30 06:48:51;;;;;;;1.45;0.85;;;20.80;99.90;;;;;;5092495;28;20207;-62
2023/07/30 06:51:20;;;;;;;1.42;1.20;;;20.80;99.90;;;;;;5090452;28;20220;-63
2023/07/30 06:53:48;;;;;;;2.25;1.10;;;20.90;99.90;;;;;;5093434;28;20630;-62
2023/07/30 06:56:16;;;;;;;2.17;0.93;;;20.90;99.90;;;;;;5087755;28;20231;-63
2023/07/30 06:58:43;;;;;;;1.45;0.90;;;21.00;99.90;;;;;;5091466;28;20232;-62
2023/07/30 07:01:11;;;;;;;1.55;1.10;;;21.00;99.90;;;;;;5093216;28;20607;-61
2023/07/30 07:03:39;;;;;;;2.00;0.80;;;21.10;99.90;;;;;;5093710;28;20227;-62
2023/07/30 07:06:09;;;;;;;0.93;0.93;;;21.10;99.90;;;;;;5086067;28;20212;-62
2023/07/30 07:08:37;;;;;;;1.55;1.20;;;21.10;99.90;;;;;;5091046;28;20601;-62
2023/07/30 07:11:04;;;;;;;3.92;1.17;;;21.10;99.90;;;;;;5090373;28;20272;-63
2023/07/30 07:13:32;;;;;;;2.10;1.08;;;21.10;99.90;;;;;;5089883;28;20231;-62
2023/07/30 07:16:00;;;;;;;1.98;0.88;;;21.10;99.90;;;;;;5085232;28;20196;-62
2023/07/30 07:18:28;;;;;;;1.15;1.05;;;21.10;99.90;;;;;;5082177;28;20228;-62
2023/07/30 07:20:56;;;;;;;1.23;1.10;;;21.10;99.90;;;;;;5083189;28;20272;-61
2023/07/30 07:23:26;;;;;;;1.13;1.13;;;21.00;99.90;;;;;;5088973;28;20579;-62
2023/07/30 07:25:53;;;;;;;2.38;1.00;;;21.00;99.90;;;;;;5086512;28;20200;-62
2023/07/30 07:28:21;;;;;;;0.90;0.90;;;20.90;99.90;;;;;;5087026;28;20192;-63
2023/07/30 07:30:49;;;;;;;1.17;1.08;;;20.80;99.90;;;;;;5094338;28;20203;-62
2023/07/30 07:33:17;;;;;;;2.80;0.90;;;20.70;99.90;;;;;;5091083;28;20231;-62
2023/07/30 07:35:45;;;;;;;0.98;0.90;;;20.70;99.90;;;;;;5092839;28;20253;-62
2023/07/30 07:38:13;;;;;;;2.67;1.15;;;20.60;99.90;;;;;;5100201;28;20196;-62
2023/07/30 07:40:43;;;;;;;3.10;1.20;;;20.70;99.90;;;;;;5106488;28;20203;-62
2023/07/30 07:43:10;;;;;;;1.33;1.23;;;20.70;99.90;;;;;;5096286;27;20220;-62
2023/07/30 07:45:38;;;;;;;2.10;1.00;;;20.70;99.90;;;;;;5107755;28;20204;-62
2023/07/30 07:48:06;;;;;;;2.70;1.15;;;20.70;99.90;;;;;;5101413;28;20264;-62
2023/07/30 07:50:35;;;;;;;2.35;1.20;;;20.80;99.90;;;;;;5099959;28;20215;-62
2023/07/30 07:53:02;;;;;;;1.65;1.20;;;20.90;99.90;;;;;;5108975;28;20272;-62
2023/07/30 07:55:30;;;;;;;1.90;0.93;;;21.00;99.90;;;;;;5079647;28;20638;-62
2023/07/30 07:58:00;;;;;;;1.45;1.10;;;21.00;99.90;;;;;;5105012;28;20282;-62
2023/07/30 08:00:28;;;;;;;1.65;1.60;;;21.10;99.90;;;;;;5104053;28;20235;-61
2023/07/30 08:02:55;;;;;;;2.22;1.40;;;21.20;99.90;;;;;;5096618;28;20251;-62
2023/07/30 08:05:24;;;;;;;1.67;1.55;;;21.20;99.90;;;;;;5108629;28;20222;-62
2023/07/30 08:07:53;;;;;;;5.47;1.88;;;21.20;99.90;;;;;;5099289;28;20203;-62
2023/07/30 08:10:21;;;;;;;2.20;1.73;;;21.20;99.90;;;;;;5099228;28;20290;-62
2023/07/30 08:12:49;;;;;;;1.60;1.60;;;21.20;99.90;;;;;;5097301;28;20235;-62
2023/07/30 08:15:18;;;;;;;3.33;2.00;;;21.20;99.90;;;;;;5091616;28;20294;-62
2023/07/30 08:17:46;;;;;;;2.70;1.50;;;21.30;99.90;;;;;;5093186;28;20199;-62
2023/07/30 08:20:14;;;;;;;2.05;1.50;;;21.30;99.90;;;;;;5086552;28;20207;-62
2023/07/30 08:22:42;;;;;;;3.47;1.23;;;21.40;99.90;;;;;;5085516;28;20247;-61
2023/07/30 08:25:10;;;;;;;1.25;1.10;;;21.50;99.90;;;;;;5105875;28;20302;-61
2023/07/30 08:27:38;;;;;;;2.20;1.00;;;21.50;99.90;;;;;;5094094;28;20235;-62
2023/07/30 08:30:08;;;;;;;1.30;1.13;;;21.50;99.90;;;;;;5092892;28;20674;-61
2023/07/30 08:32:37;;;;;;;1.00;1.00;;;21.60;99.90;;;;;;5094882;28;21486;-62
2023/07/30 08:35:08;;;;;;;3.13;1.38;;;21.70;99.90;;;;;;5101571;28;20219;-62
2023/07/30 08:37:36;;;;;;;1.40;1.30;;;21.80;99.90;;;;;;5094318;28;20204;-62
2023/07/30 08:40:05;;;;;;;1.42;1.33;;;21.80;99.90;;;;;;5085862;28;20205;-61
2023/07/30 08:42:33;;;;;;;1.60;1.50;;;22.00;99.90;;;;;;5088250;28;20261;-61
2023/07/30 08:45:01;;;;;;;1.55;1.48;;;22.20;99.90;;;;;;5080211;28;20204;-62
2023/07/30 08:47:30;;;;;;;1.50;1.40;;;22.30;99.90;;;;;;5078556;28;20196;-62
2023/07/30 08:49:59;;;;;;;1.40;1.30;;;22.50;99.90;;;;;;5097892;28;20207;-62
2023/07/30 08:52:27;;;;;;;2.95;1.80;;;22.60;99.90;;;;;;5093584;22;20726;-62
2023/07/30 08:54:56;;;;;;;1.70;1.60;;;22.60;99.90;;;;;;5083355;28;20261;-62
2023/07/30 08:57:23;;;;;;;2.50;2.30;;;22.60;99.90;;;;;;5085142;28;20266;-62
2023/07/30 08:59:54;;;;;;;2.03;1.80;;;22.60;99.90;;;;;;5086830;28;20277;-62
2023/07/30 09:02:25;;;;;;;1.60;1.60;;;22.50;99.90;;;;;;5083193;28;20247;-62
2023/07/30 09:04:54;;;;;;;4.95;2.45;;;22.40;99.90;;;;;;5080228;28;20622;-62
2023/07/30 09:07:24;;;;;;;1.88;1.88;;;22.40;99.90;;;;;;5088441;28;20254;-62
2023/07/30 09:09:51;;;;;;;1.77;1.60;;;22.50;99.90;;;;;;5077508;28;20208;-63
2023/07/30 09:12:19;;;;;;;3.20;1.42;;;22.60;99.90;;;;;;5085117;28;20307;-62
2023/07/30 09:14:48;;;;;;;3.10;1.50;;;22.70;99.90;;;;;;5080755;28;20224;-62
2023/07/30 09:17:18;;;;;;;1.55;1.55;;;22.60;99.90;;;;;;5078971;28;20295;-61
2023/07/30 09:19:46;;;;;;;0.88;0.75;;;22.40;99.90;;;;;;5085800;28;20860;-62
2023/07/30 09:22:14;;;;;;;0.52;0.52;;;22.10;99.90;;;;;;5083516;28;20247;-62
2023/07/30 09:24:44;;;;;;;1.10;0.47;;;21.80;99.90;;;;;;5080040;28;20726;-61
2023/07/30 09:27:12;;;;;;;0.40;0.40;;;21.50;99.90;;;;;;5106123;28;20290;-61
2023/07/30 09:29:40;;;;;;;2.83;0.55;;;21.20;99.90;;;;;;5075602;28;20255;-61
2023/07/30 09:32:08;;;;;;;0.60;0.60;;;21.10;99.90;;;;;;5087172;28;20299;-61
2023/07/30 09:34:36;;;;;;;1.23;0.50;;;20.90;99.90;;;;;;5090865;28;20211;-62
2023/07/30 09:37:04;;;;;;;2.03;0.60;;;20.80;99.90;;;;;;5094569;28;20207;-61
2023/07/30 09:39:32;;;;;;;2.15;0.50;;;20.70;99.90;;;;;;5092707;28;20211;-61
2023/07/30 09:42:01;;;;;;;0.30;0.30;;;20.70;99.90;;;;;;5093371;28;20317;-61
2023/07/30 09:44:30;;;;;;;1.02;0.30;;;20.70;99.90;;;;;;5082786;28;20236;-61
2023/07/30 09:46:58;;;;;;;0.50;0.30;;;20.70;99.90;;;;;;5105384;28;20235;-61
2023/07/30 09:49:26;;;;;;;0.30;0.30;;;20.70;99.90;;;;;;5081672;28;20199;-61
2023/07/30 09:51:53;;;;;;;0.93;0.28;;;20.70;99.90;;;;;;5102625;28;20278;-61
2023/07/30 09:54:22;;;;;;;1.85;0.40;;;20.80;99.90;;;;;;5105668;28;20257;-62
2023/07/30 09:56:50;;;;;;;0.25;0.25;;;20.80;99.90;;;;;;5099916;28;20232;-61
2023/07/30 09:59:19;;;;;;;0.30;0.30;;;20.90;99.90;;;;;;5111437;28;20231;-61
2023/07/30 10:01:50;;;;;;;0.60;0.30;;;20.80;99.90;;;;;;5100514;28;20203;-61
2023/07/30 10:04:20;;;;;;;0.30;0.30;;;20.80;99.90;;;;;;5104360;28;20682;-61
2023/07/30 10:06:50;;;;;;;0.98;0.20;;;20.90;99.90;;;;;;5109011;28;20195;-61
2023/07/30 10:09:19;;;;;;;0.93;0.40;;;20.80;99.90;;;;;;5098044;28;20228;-61
2023/07/30 10:11:46;;;;;;;0.85;0.60;;;20.70;99.90;;;;;;5108335;28;20235;-61
2023/07/30 10:14:14;;;;;;;0.40;0.40;;;20.60;99.90;;;;;;5104495;28;20601;-61
2023/07/30 10:16:52;;;;;;;2.22;0.40;;;20.60;99.90;;;;;;5100558;28;20681;-61
2023/07/30 10:19:23;;;;;;;0.50;0.50;;;20.70;99.90;;;;;;5099992;28;20200;-61
2023/07/30 10:21:51;;;;;;;0.40;0.38;;;20.70;99.90;;;;;;5107794;28;20276;-61
2023/07/30 10:24:19;;;;;;;0.52;0.50;;;20.80;99.90;;;;;;5104748;28;20238;-62
2023/07/30 10:26:47;;;;;;;1.48;0.50;;;20.90;99.90;;;;;;5099714;28;20283;-62
2023/07/30 10:29:16;;;;;;;0.85;0.50;;;21.10;99.90;;;;;;5111253;28;20309;-61
2023/07/30 10:31:45;;;;;;;4.10;0.80;;;21.30;99.90;;;;;;5099678;28;20262;-61
2023/07/30 10:34:14;;;;;;;1.25;0.43;;;21.40;99.90;;;;;;5104604;28;20759;-61
2023/07/30 10:36:44;;;;;;;1.38;0.57;;;21.70;99.90;;;;;;5093513;28;20203;-61
2023/07/30 10:39:13;;;;;;;0.75;0.68;;;22.20;99.90;;;;;;5110003;28;20260;-61
2023/07/30 10:41:41;;;;;;;0.85;0.57;;;22.80;99.90;;;;;;5099098;28;20237;-62
2023/07/30 10:44:25;;;;;;;1.65;0.50;;;23.30;99.90;;;;;;5104810;28;20196;-61
2023/07/30 10:46:53;;;;;;;1.90;0.70;;;23.10;99.90;;;;;;5093504;28;20210;-61
2023/07/30 10:49:23;;;;;;;2.05;0.60;;;22.90;99.90;;;;;;5111041;28;20203;-62
2023/07/30 10:51:52;;;;;;;4.20;0.82;;;23.00;99.90;;;;;;5100381;28;20241;-62
2023/07/30 10:54:20;;;;;;;1.02;0.63;;;23.50;99.90;;;;;;5092321;28;20224;-62
2023/07/30 10:56:48;;;;;;;1.95;0.90;;;23.60;99.90;;;;;;5102505;28;20199;-62
2023/07/30 10:59:17;;;;;;;1.05;0.60;;;24.00;99.90;;;;;;5080741;28;20304;-62
2023/07/30 11:01:45;;;;;;;0.95;0.70;;;24.30;99.90;;;;;;5101543;28;20243;-62
2023/07/30 11:04:15;;;;;;;2.38;0.70;;;24.60;99.90;;;;;;5092998;28;20662;-62
2023/07/30 11:06:47;;;;;;;3.83;1.02;;;24.80;99.90;;;;;;5113476;28;20207;-62
2023/07/30 11:09:22;;;;;;;4.07;0.68;;;24.60;99.90;;;;;;5080325;28;20212;-62
2023/07/30 11:11:50;;;;;;;2.95;1.00;;;24.50;99.90;;;;;;5100471;28;20235;-62
2023/07/30 11:14:19;;;;;;;4.95;0.93;;;24.40;99.90;;;;;;5093971;28;20246;-62
2023/07/30 11:16:49;;;;;;;2.33;1.08;;;24.50;99.90;;;;;;5113571;28;20207;-62
2023/07/30 11:19:17;;;;;;;3.88;0.82;;;24.60;99.90;;;;;;5089157;28;20215;-62
2023/07/30 11:21:48;;;;;;;1.20;0.93;;;24.80;99.90;;;;;;5084534;28;20199;-62
2023/07/30 11:24:24;;;;;;;1.42;0.93;;;24.80;99.90;;;;;;5091772;28;20197;-61
2023/07/30 11:26:58;;;;;;;5.53;1.10;;;24.30;99.90;;;;;;5103174;28;20192;-62
2023/07/30 11:29:26;;;;;;;4.90;1.10;;;23.80;99.90;;;;;;5080167;28;20194;-61
2023/07/30 11:31:57;;;;;;;1.92;1.00;;;23.50;99.90;;;;;;5098951;28;20265;-61
2023/07/30 11:34:25;;;;;;;1.63;1.00;;;23.10;99.90;;;;;;5095582;28;20219;-62
2023/07/30 11:36:54;;;;;;;1.67;0.80;;;22.70;99.90;;;;;;5082078;28;20266;-62
2023/07/30 11:39:22;;;;;;;2.05;0.90;;;22.40;99.90;;;;;;5091789;28;20265;-62
2023/07/30 11:41:50;;;;;;;4.18;0.98;;;22.20;99.90;;;;;;5088693;28;20235;-61
2023/07/30 11:44:37;;;;;;;2.53;0.85;;;22.00;99.90;;;;;;5091241;28;20679;-61
2023/07/30 11:47:06;;;;;;;2.67;0.95;;;21.80;99.90;;;;;;5091924;28;20239;-61
2023/07/30 11:49:34;;;;;;;6.95;1.05;;;21.70;99.90;;;;;;5080554;28;20200;-61
2023/07/30 11:52:07;;;;;;;5.63;1.10;;;21.70;99.90;;;;;;5099137;28;20328;-61
2023/07/30 11:54:35;;;;;;;4.50;1.00;;;21.70;99.90;;;;;;5091599;28;20224;-61
2023/07/30 11:57:03;;;;;;;4.47;0.82;;;21.70;99.90;;;;;;5093337;28;20304;-61
2023/07/30 11:59:31;;;;;;;2.80;1.20;;;21.70;99.90;;;;;;5092064;28;20337;-62
2023/07/30 12:01:59;;;;;;;3.00;0.90;;;21.70;99.90;;;;;;5093237;28;20252;-61
2023/07/30 12:04:31;;;;;;;3.78;1.00;;;21.90;99.90;;;;;;5090732;28;20663;-62
2023/07/30 12:07:01;;;;;;;1.25;0.80;;;21.90;99.90;;;;;;5089823;28;20204;-61
2023/07/30 12:09:35;;;;;;;4.75;1.10;;;21.90;99.90;;;;;;5089941;28;20204;-61
2023/07/30 12:12:04;;;;;;;1.85;0.90;;;22.00;99.90;;;;;;5095584;28;20306;-61
2023/07/30 12:14:44;;;;;;;1.77;0.93;;;22.00;99.90;;;;;;5091616;28;20297;-62
2023/07/30 12:17:11;;;;;;;2.72;1.08;;;22.00;99.90;;;;;;5109036;28;20199;-61
2023/07/30 12:19:41;;;;;;;2.95;0.80;;;21.90;99.90;;;;;;5090367;28;20291;-61
2023/07/30 12:22:09;;;;;;;2.72;0.85;;;21.90;99.90;;;;;;5091266;28;20262;-61
2023/07/30 12:24:38;;;;;;;1.73;1.02;;;22.10;99.90;;;;;;5091697;28;20200;-61
2023/07/30 12:27:06;;;;;;;2.53;1.20;;;22.20;99.90;;;;;;5108452;28;20211;-60
2023/07/30 12:29:34;;;;;;;4.78;1.20;;;22.20;99.90;;;;;;5096204;28;20222;-61
2023/07/30 12:32:02;;;;;;;3.17;1.23;;;22.10;99.90;;;;;;5103783;28;20256;-61
2023/07/30 12:34:31;;;;;;;6.05;1.40;;;22.20;99.90;;;;;;5103643;28;20219;-61
2023/07/30 12:36:59;;;;;;;1.55;0.90;;;22.20;99.90;;;;;;5094302;28;20304;-61
2023/07/30 12:39:28;;;;;;;2.95;1.00;;;22.30;99.90;;;;;;5108265;28;20245;-61
2023/07/30 12:41:57;;;;;;;1.65;1.08;;;22.20;99.90;;;;;;5098635;28;20314;-61
2023/07/30 12:44:25;;;;;;;2.10;0.90;;;22.10;99.90;;;;;;5100736;28;20192;-61
2023/07/30 12:46:53;;;;;;;2.17;1.00;;;22.30;99.90;;;;;;5106908;28;20286;-61
2023/07/30 12:49:21;;;;;;;3.42;1.15;;;23.00;99.90;;;;;;5094745;28;20291;-62
2023/07/30 12:51:49;;;;;;;4.13;0.90;;;23.70;99.90;;;;;;5105063;28;20231;-61